sensor_id;sensor_type;location;lat;lon;timestamp;P1;durP1;ratioP1;P2;durP2;ratioP2
22017;SDS011;11173;51.050;7.108;2023-10-08T00:06:11;1.93;;;1.60;;
22017;SDS011;11173;51.050;7.108;2023-10-08T00:16:14;2.90;;;1.85;;
22017;SDS011;11173;51.050;7.108;2023-10-08T00:26:16;2.20;;;1.83;;
22017;SDS011;11173;51.050;7.108;2023-10-08T00:36:27;2.25;;;2.00;;
22017;SDS011;11173;51.050;7.108;2023-10-08T00:46:27;2.53;;;2.10;;
22017;SDS011;11173;51.050;7.108;2023-10-08T00:56:36;3.47;;;2.10;;
22017;SDS011;11173;51.050;7.108;2023-10-08T01:17:01;2.42;;;1.60;;
22017;SDS011;11173;51.050;7.108;2023-10-08T01:27:02;3.67;;;2.58;;
22017;SDS011;11173;51.050;7.108;2023-10-08T01:37:05;2.78;;;2.30;;
22017;SDS011;11173;51.050;7.108;2023-10-08T01:47:08;2.83;;;2.00;;
22017;SDS011;11173;51.050;7.108;2023-10-08T01:57:11;3.08;;;2.30;;
22017;SDS011;11173;51.050;7.108;2023-10-08T02:07:12;2.17;;;1.75;;
22017;SDS011;11173;51.050;7.108;2023-10-08T02:17:12;1.38;;;1.13;;
22017;SDS011;11173;51.050;7.108;2023-10-08T02:27:13;0.77;;;0.70;;
22017;SDS011;11173;51.050;7.108;2023-10-08T02:37:15;0.50;;;0.50;;
22017;SDS011;11173;51.050;7.108;2023-10-08T02:47:15;0.60;;;0.60;;
22017;SDS011;11173;51.050;7.108;2023-10-08T02:57:21;0.73;;;0.55;;
22017;SDS011;11173;51.050;7.108;2023-10-08T03:07:21;0.30;;;0.30;;
22017;SDS011;11173;51.050;7.108;2023-10-08T03:17:22;0.50;;;0.45;;
22017;SDS011;11173;51.050;7.108;2023-10-08T03:27:22;1.42;;;1.20;;
22017;SDS011;11173;51.050;7.108;2023-10-08T03:37:26;1.27;;;0.88;;
22017;SDS011;11173;51.050;7.108;2023-10-08T03:47:30;0.52;;;0.52;;
22017;SDS011;11173;51.050;7.108;2023-10-08T03:57:32;2.28;;;1.58;;
22017;SDS011;11173;51.050;7.108;2023-10-08T04:07:41;1.57;;;1.20;;
22017;SDS011;11173;51.050;7.108;2023-10-08T04:18:02;1.10;;;1.00;;
22017;SDS011;11173;51.050;7.108;2023-10-08T04:28:03;1.10;;;1.00;;
22017;SDS011;11173;51.050;7.108;2023-10-08T04:38:04;0.73;;;0.68;;
22017;SDS011;11173;51.050;7.108;2023-10-08T04:48:08;2.03;;;1.73;;
22017;SDS011;11173;51.050;7.108;2023-10-08T04:58:09;1.52;;;1.08;;
22017;SDS011;11173;51.050;7.108;2023-10-08T05:08:21;0.43;;;0.43;;
22017;SDS011;11173;51.050;7.108;2023-10-08T05:18:32;0.75;;;0.50;;
22017;SDS011;11173;51.050;7.108;2023-10-08T05:28:51;0.37;;;0.37;;
22017;SDS011;11173;51.050;7.108;2023-10-08T05:39:02;0.50;;;0.38;;
22017;SDS011;11173;51.050;7.108;2023-10-08T05:49:19;0.60;;;0.50;;
22017;SDS011;11173;51.050;7.108;2023-10-08T05:59:26;2.45;;;1.88;;
22017;SDS011;11173;51.050;7.108;2023-10-08T06:09:38;1.13;;;1.02;;
22017;SDS011;11173;51.050;7.108;2023-10-08T06:19:40;2.25;;;1.40;;
22017;SDS011;11173;51.050;7.108;2023-10-08T06:29:40;2.80;;;1.60;;
22017;SDS011;11173;51.050;7.108;2023-10-08T06:39:44;1.83;;;1.52;;
22017;SDS011;11173;51.050;7.108;2023-10-08T06:49:47;1.30;;;0.82;;
22017;SDS011;11173;51.050;7.108;2023-10-08T06:59:48;1.67;;;1.30;;
22017;SDS011;11173;51.050;7.108;2023-10-08T07:09:50;1.20;;;1.10;;
22017;SDS011;11173;51.050;7.108;2023-10-08T07:19:52;1.25;;;1.15;;
22017;SDS011;11173;51.050;7.108;2023-10-08T07:29:53;1.25;;;1.15;;
22017;SDS011;11173;51.050;7.108;2023-10-08T07:39:55;0.77;;;0.77;;
22017;SDS011;11173;51.050;7.108;2023-10-08T07:49:56;0.80;;;0.73;;
22017;SDS011;11173;51.050;7.108;2023-10-08T07:59:56;1.95;;;1.25;;
22017;SDS011;11173;51.050;7.108;2023-10-08T08:10:17;2.95;;;1.33;;
22017;SDS011;11173;51.050;7.108;2023-10-08T08:20:18;2.05;;;1.48;;
22017;SDS011;11173;51.050;7.108;2023-10-08T08:30:19;2.45;;;1.50;;
22017;SDS011;11173;51.050;7.108;2023-10-08T08:40:20;1.27;;;1.17;;
22017;SDS011;11173;51.050;7.108;2023-10-08T08:50:25;0.93;;;0.82;;
22017;SDS011;11173;51.050;7.108;2023-10-08T09:00:27;1.10;;;1.00;;
22017;SDS011;11173;51.050;7.108;2023-10-08T09:10:30;1.23;;;0.93;;
22017;SDS011;11173;51.050;7.108;2023-10-08T09:20:37;1.60;;;1.42;;
22017;SDS011;11173;51.050;7.108;2023-10-08T09:30:43;1.77;;;1.35;;
22017;SDS011;11173;51.050;7.108;2023-10-08T09:40:48;0.80;;;0.70;;
22017;SDS011;11173;51.050;7.108;2023-10-08T09:50:49;2.60;;;1.65;;
22017;SDS011;11173;51.050;7.108;2023-10-08T10:00:52;3.58;;;1.75;;
22017;SDS011;11173;51.050;7.108;2023-10-08T10:10:57;1.85;;;1.40;;
22017;SDS011;11173;51.050;7.108;2023-10-08T10:31:18;1.77;;;1.42;;
22017;SDS011;11173;51.050;7.108;2023-10-08T10:41:19;1.55;;;1.27;;
22017;SDS011;11173;51.050;7.108;2023-10-08T10:51:20;1.23;;;0.98;;
22017;SDS011;11173;51.050;7.108;2023-10-08T11:01:26;3.42;;;1.80;;
22017;SDS011;11173;51.050;7.108;2023-10-08T11:11:29;1.97;;;1.57;;
22017;SDS011;11173;51.050;7.108;2023-10-08T11:21:29;1.70;;;1.52;;
22017;SDS011;11173;51.050;7.108;2023-10-08T11:31:34;3.83;;;2.33;;
22017;SDS011;11173;51.050;7.108;2023-10-08T11:41:34;3.38;;;2.45;;
22017;SDS011;11173;51.050;7.108;2023-10-08T11:51:50;2.40;;;1.80;;
22017;SDS011;11173;51.050;7.108;2023-10-08T12:01:56;2.05;;;1.85;;
22017;SDS011;11173;51.050;7.108;2023-10-08T12:11:56;1.35;;;1.25;;
22017;SDS011;11173;51.050;7.108;2023-10-08T12:22:00;2.45;;;1.60;;
22017;SDS011;11173;51.050;7.108;2023-10-08T12:32:02;2.58;;;2.03;;
22017;SDS011;11173;51.050;7.108;2023-10-08T12:42:09;3.47;;;2.30;;
22017;SDS011;11173;51.050;7.108;2023-10-08T12:52:09;4.07;;;2.58;;
22017;SDS011;11173;51.050;7.108;2023-10-08T13:02:13;1.50;;;1.40;;
22017;SDS011;11173;51.050;7.108;2023-10-08T13:12:16;1.20;;;1.00;;
22017;SDS011;11173;51.050;7.108;2023-10-08T13:22:16;1.70;;;1.50;;
22017;SDS011;11173;51.050;7.108;2023-10-08T13:32:19;1.05;;;1.02;;
22017;SDS011;11173;51.050;7.108;2023-10-08T13:42:20;1.77;;;0.90;;
22017;SDS011;11173;51.050;7.108;2023-10-08T13:52:20;1.38;;;1.02;;
22017;SDS011;11173;51.050;7.108;2023-10-08T14:02:21;1.92;;;0.98;;
22017;SDS011;11173;51.050;7.108;2023-10-08T14:12:21;0.70;;;0.70;;
22017;SDS011;11173;51.050;7.108;2023-10-08T14:22:22;0.60;;;0.60;;
22017;SDS011;11173;51.050;7.108;2023-10-08T14:32:22;0.82;;;0.80;;
22017;SDS011;11173;51.050;7.108;2023-10-08T14:42:25;1.00;;;0.90;;
22017;SDS011;11173;51.050;7.108;2023-10-08T15:02:45;2.58;;;1.92;;
22017;SDS011;11173;51.050;7.108;2023-10-08T15:12:45;1.00;;;0.80;;
22017;SDS011;11173;51.050;7.108;2023-10-08T15:22:46;0.88;;;0.73;;
22017;SDS011;11173;51.050;7.108;2023-10-08T15:32:48;1.77;;;0.77;;
22017;SDS011;11173;51.050;7.108;2023-10-08T15:42:51;2.08;;;1.17;;
22017;SDS011;11173;51.050;7.108;2023-10-08T15:52:52;1.25;;;0.80;;
22017;SDS011;11173;51.050;7.108;2023-10-08T16:02:54;0.57;;;0.47;;
22017;SDS011;11173;51.050;7.108;2023-10-08T16:12:54;0.40;;;0.40;;
22017;SDS011;11173;51.050;7.108;2023-10-08T16:22:56;1.85;;;0.80;;
22017;SDS011;11173;51.050;7.108;2023-10-08T16:32:57;1.15;;;1.05;;
22017;SDS011;11173;51.050;7.108;2023-10-08T16:42:58;0.73;;;0.73;;
22017;SDS011;11173;51.050;7.108;2023-10-08T16:52:58;0.80;;;0.68;;
22017;SDS011;11173;51.050;7.108;2023-10-08T17:02:58;2.13;;;1.92;;
22017;SDS011;11173;51.050;7.108;2023-10-08T17:13:00;3.20;;;2.22;;
22017;SDS011;11173;51.050;7.108;2023-10-08T17:23:00;1.55;;;1.45;;
22017;SDS011;11173;51.050;7.108;2023-10-08T17:33:01;4.03;;;2.10;;
22017;SDS011;11173;51.050;7.108;2023-10-08T17:43:01;4.60;;;2.85;;
22017;SDS011;11173;51.050;7.108;2023-10-08T17:53:04;2.95;;;2.42;;
22017;SDS011;11173;51.050;7.108;2023-10-08T18:03:05;1.60;;;1.50;;
22017;SDS011;11173;51.050;7.108;2023-10-08T18:13:06;4.50;;;2.80;;
22017;SDS011;11173;51.050;7.108;2023-10-08T18:23:07;4.65;;;2.92;;
22017;SDS011;11173;51.050;7.108;2023-10-08T18:33:11;5.22;;;3.05;;
22017;SDS011;11173;51.050;7.108;2023-10-08T18:43:11;4.72;;;4.13;;
22017;SDS011;11173;51.050;7.108;2023-10-08T18:53:18;6.28;;;3.38;;
22017;SDS011;11173;51.050;7.108;2023-10-08T19:03:19;6.50;;;4.43;;
22017;SDS011;11173;51.050;7.108;2023-10-08T19:13:20;9.93;;;5.13;;
22017;SDS011;11173;51.050;7.108;2023-10-08T19:23:22;6.05;;;4.75;;
22017;SDS011;11173;51.050;7.108;2023-10-08T19:33:22;8.43;;;5.28;;
22017;SDS011;11173;51.050;7.108;2023-10-08T19:43:23;8.38;;;6.10;;
22017;SDS011;11173;51.050;7.108;2023-10-08T19:53:23;5.95;;;4.60;;
22017;SDS011;11173;51.050;7.108;2023-10-08T20:03:24;7.65;;;5.68;;
22017;SDS011;11173;51.050;7.108;2023-10-08T20:13:24;8.23;;;6.05;;
22017;SDS011;11173;51.050;7.108;2023-10-08T20:23:25;10.52;;;5.55;;
22017;SDS011;11173;51.050;7.108;2023-10-08T20:33:29;7.07;;;4.88;;
22017;SDS011;11173;51.050;7.108;2023-10-08T20:43:29;7.60;;;5.32;;
22017;SDS011;11173;51.050;7.108;2023-10-08T20:53:32;4.40;;;3.60;;
22017;SDS011;11173;51.050;7.108;2023-10-08T21:03:34;2.10;;;1.95;;
22017;SDS011;11173;51.050;7.108;2023-10-08T21:13:40;1.27;;;1.17;;
22017;SDS011;11173;51.050;7.108;2023-10-08T21:23:40;0.90;;;0.90;;
22017;SDS011;11173;51.050;7.108;2023-10-08T21:33:41;1.33;;;0.80;;
22017;SDS011;11173;51.050;7.108;2023-10-08T21:43:41;1.00;;;0.80;;
22017;SDS011;11173;51.050;7.108;2023-10-08T21:53:41;0.80;;;0.80;;
22017;SDS011;11173;51.050;7.108;2023-10-08T22:03:44;1.50;;;1.35;;
22017;SDS011;11173;51.050;7.108;2023-10-08T22:13:45;1.35;;;1.30;;
22017;SDS011;11173;51.050;7.108;2023-10-08T22:23:46;0.85;;;0.80;;
22017;SDS011;11173;51.050;7.108;2023-10-08T22:33:46;0.80;;;0.80;;
22017;SDS011;11173;51.050;7.108;2023-10-08T22:43:47;1.90;;;1.10;;
22017;SDS011;11173;51.050;7.108;2023-10-08T22:53:54;0.75;;;0.75;;
22017;SDS011;11173;51.050;7.108;2023-10-08T23:03:58;0.50;;;0.47;;
22017;SDS011;11173;51.050;7.108;2023-10-08T23:14:02;0.47;;;0.47;;
22017;SDS011;11173;51.050;7.108;2023-10-08T23:24:05;0.40;;;0.40;;
22017;SDS011;11173;51.050;7.108;2023-10-08T23:34:07;1.02;;;0.60;;
22017;SDS011;11173;51.050;7.108;2023-10-08T23:44:10;0.98;;;0.50;;
22017;SDS011;11173;51.050;7.108;2023-10-08T23:54:12;0.40;;;0.40;;
